Time;durP1;ratioP1;P1;durP2;ratioP2;P2;SDS_P1;SDS_P2;PMS_P1;PMS_P2;Temp;Humidity;BMP_temperature;BMP_pressure;BME280_temperature;BME280_humidity;BME280_pressure;Samples;Min_cycle;Max_cycle;Signal;HPM_P1;HPM_P2
2022/09/28 00:01:53;;;;;;;0.70;0.70;;;;;;;;;;5096748;28;20028;-77
2022/09/28 00:04:19;;;;;;;0.70;0.70;;;;;;;;;;5098541;28;20047;-77
2022/09/28 00:06:45;;;;;;;0.70;0.70;;;;;;;;;;5095551;28;20024;-77
2022/09/28 00:09:10;;;;;;;0.63;0.60;;;;;;;;;;5093153;28;20028;-77
2022/09/28 00:11:36;;;;;;;0.90;0.70;;;;;;;;;;5094440;28;20023;-77
2022/09/28 00:14:02;;;;;;;0.68;0.68;;;;;;;;;;5093147;28;20273;-76
2022/09/28 00:16:33;;;;;;;0.90;0.70;;;;;;;;;;5094511;28;20098;-78
2022/09/28 00:18:58;;;;;;;0.70;0.70;;;;;;;;;;5097548;28;20024;-77
2022/09/28 00:21:26;;;;;;;0.85;0.70;;;;;;;;;;5105893;28;20028;-77
2022/09/28 00:24:12;;;;;;;0.65;0.65;;;;;;;;;;5106761;28;20070;-77
2022/09/28 00:26:43;;;;;;;0.85;0.60;;;;;;;;;;5105828;28;20099;-77
2022/09/28 00:29:16;;;;;;;0.70;0.70;;;;;;;;;;5106783;28;20035;-76
2022/09/28 00:31:41;;;;;;;6.15;2.05;;;;;;;;;;5105996;28;20024;-76
2022/09/28 00:34:06;;;;;;;0.57;0.57;;;;;;;;;;5107222;28;20017;-77
2022/09/28 00:36:32;;;;;;;2.58;0.50;;;;;;;;;;5107616;28;20024;-77
2022/09/28 00:39:02;;;;;;;1.38;0.70;;;;;;;;;;5106417;28;20053;-77
2022/09/28 00:41:28;;;;;;;0.73;0.70;;;;;;;;;;5108812;28;20027;-77
2022/09/28 00:44:25;;;;;;;2.22;0.65;;;;;;;;;;5108711;28;20023;-77
2022/09/28 00:47:20;;;;;;;0.90;0.60;;;;;;;;;;5107749;28;20039;-77
2022/09/28 00:49:55;;;;;;;0.80;0.68;;;;;;;;;;5108730;28;20016;-77
2022/09/28 00:52:44;;;;;;;0.70;0.70;;;;;;;;;;5108740;28;20483;-77
2022/09/28 00:55:16;;;;;;;1.30;0.68;;;;;;;;;;5107451;28;20024;-76
2022/09/28 00:57:47;;;;;;;0.52;0.50;;;;;;;;;;5098705;28;20534;-76
2022/09/28 01:00:13;;;;;;;0.93;0.60;;;;;;;;;;5092214;28;20077;-76
2022/09/28 01:02:39;;;;;;;0.80;0.60;;;;;;;;;;5093654;28;20024;-76
2022/09/28 01:05:07;;;;;;;1.05;0.60;;;;;;;;;;5093701;28;20416;-76
2022/09/28 01:07:33;;;;;;;1.08;0.77;;;;;;;;;;5092597;28;20031;-76
2022/09/28 01:09:59;;;;;;;1.15;0.50;;;;;;;;;;5093452;28;20024;-76
2022/09/28 01:12:25;;;;;;;0.52;0.52;;;;;;;;;;5093598;28;20060;-75
2022/09/28 01:14:51;;;;;;;2.47;1.40;;;;;;;;;;5093626;28;20024;-76
2022/09/28 01:17:25;;;;;;;2.88;1.50;;;;;;;;;;5093524;28;20261;-77
2022/09/28 01:20:07;;;;;;;;;;;;;;;;;;5093898;28;20024;-77
2022/09/28 01:22:57;;;;;;;3.85;1.10;;;;;;;;;;5093242;28;20320;-76
2022/09/28 01:25:28;;;;;;;0.88;0.77;;;;;;;;;;5092126;28;20020;-76
2022/09/28 01:28:01;;;;;;;0.70;0.70;;;;;;;;;;5093807;28;20115;-76
2022/09/28 01:30:27;;;;;;;0.57;0.57;;;;;;;;;;5093827;28;20023;-77
2022/09/28 01:33:03;;;;;;;0.80;0.60;;;;;;;;;;5092692;28;20114;-77
2022/09/28 01:35:35;;;;;;;1.00;0.60;;;;;;;;;;5094113;28;20039;-77
2022/09/28 01:38:16;;;;;;;0.50;0.50;;;;;;;;;;5092512;28;20030;-77
2022/09/28 01:40:43;;;;;;;0.90;0.50;;;;;;;;;;5094008;28;20043;-77
2022/09/28 01:43:16;;;;;;;0.70;0.60;;;;;;;;;;5093508;28;20481;-77
2022/09/28 01:45:52;;;;;;;4.27;1.30;;;;;;;;;;5093440;28;20028;-75
2022/09/28 01:48:23;;;;;;;2.17;0.93;;;;;;;;;;5093349;28;20020;-76
2022/09/28 01:50:53;;;;;;;3.42;0.80;;;;;;;;;;5093380;28;20473;-76
2022/09/28 01:53:31;;;;;;;1.20;0.50;;;;;;;;;;5093343;28;20028;-76
2022/09/28 01:56:02;;;;;;;1.15;0.70;;;;;;;;;;5093668;28;20024;-77
2022/09/28 01:58:35;;;;;;;0.47;0.47;;;;;;;;;;5093537;28;20499;-76
2022/09/28 02:01:08;;;;;;;3.40;0.60;;;;;;;;;;5094023;28;20036;-76
2022/09/28 02:03:41;;;;;;;0.45;0.45;;;;;;;;;;5092780;28;20043;-76
2022/09/28 02:06:14;;;;;;;0.50;0.50;;;;;;;;;;5093526;28;20020;-76
2022/09/28 02:08:49;;;;;;;2.17;0.60;;;;;;;;;;5093926;28;20028;-75
2022/09/28 02:11:17;;;;;;;1.50;0.70;;;;;;;;;;5097464;28;20028;-76
2022/09/28 02:13:48;;;;;;;0.80;0.80;;;;;;;;;;5095535;28;20037;-76
2022/09/28 02:16:39;;;;;;;0.95;0.70;;;;;;;;;;5095844;28;20078;-76
2022/09/28 02:19:10;;;;;;;2.08;0.73;;;;;;;;;;5096988;28;20495;-76
2022/09/28 02:22:03;;;;;;;0.65;0.60;;;;;;;;;;5098477;28;20556;-75
2022/09/28 02:24:41;;;;;;;1.88;0.90;;;;;;;;;;5097667;28;20085;-77
2022/09/28 02:27:15;;;;;;;0.65;0.60;;;;;;;;;;5097311;28;20039;-77
2022/09/28 02:29:41;;;;;;;1.25;0.90;;;;;;;;;;5098701;28;20023;-76
2022/09/28 02:32:06;;;;;;;0.70;0.70;;;;;;;;;;5097276;28;20077;-76
2022/09/28 02:34:32;;;;;;;0.70;0.70;;;;;;;;;;5098044;28;20369;-77
2022/09/28 02:36:57;;;;;;;3.20;0.90;;;;;;;;;;5098005;28;20047;-77
2022/09/28 02:39:23;;;;;;;1.60;0.80;;;;;;;;;;5098185;28;20048;-76
2022/09/28 02:42:03;;;;;;;1.70;0.80;;;;;;;;;;5099170;28;20031;-76
2022/09/28 02:44:53;;;;;;;2.38;0.60;;;;;;;;;;5099146;28;20024;-77
2022/09/28 02:47:24;;;;;;;1.42;0.90;;;;;;;;;;5098536;28;20031;-77
2022/09/28 02:50:16;;;;;;;0.75;0.73;;;;;;;;;;5097986;28;20028;-76
2022/09/28 02:52:57;;;;;;;0.90;0.70;;;;;;;;;;5097736;28;20024;-76
2022/09/28 02:56:16;;;;;;;2.33;1.00;;;;;;;;;;5097866;28;20024;-76
2022/09/28 02:59:03;;;;;;;0.77;0.70;;;;;;;;;;5015372;28;20022;-76
2022/09/28 03:02:06;;;;;;;1.27;0.88;;;;;;;;;;5092865;28;20048;-76
2022/09/28 03:04:57;;;;;;;1.50;0.80;;;;;;;;;;5098152;28;20057;-76
2022/09/28 03:07:26;;;;;;;1.25;0.90;;;;;;;;;;5093490;28;20075;-76
2022/09/28 03:10:15;;;;;;;1.92;1.15;;;;;;;;;;5097280;28;20063;-76
2022/09/28 03:12:43;;;;;;;1.45;1.02;;;;;;;;;;5085230;28;20036;-76
2022/09/28 03:15:20;;;;;;;1.58;1.08;;;;;;;;;;5096174;28;20028;-76
2022/09/28 03:17:46;;;;;;;2.03;1.10;;;;;;;;;;5097490;28;20031;-76
2022/09/28 03:20:11;;;;;;;1.60;1.10;;;;;;;;;;5096615;28;20031;-76
2022/09/28 03:22:37;;;;;;;3.80;1.25;;;;;;;;;;5096678;28;20058;-75
2022/09/28 03:25:03;;;;;;;1.60;1.10;;;;;;;;;;5096971;28;20077;-76
2022/09/28 03:27:28;;;;;;;1.17;1.08;;;;;;;;;;5095906;28;20024;-76
2022/09/28 03:29:53;;;;;;;2.17;1.37;;;;;;;;;;5096871;28;20028;-77
2022/09/28 03:32:18;;;;;;;3.73;1.30;;;;;;;;;;5097171;28;20264;-77
2022/09/28 03:34:43;;;;;;;4.60;2.45;;;;;;;;;;5097157;28;20272;-76
2022/09/28 03:37:09;;;;;;;8.23;5.10;;;;;;;;;;5096760;28;20028;-77
2022/09/28 03:39:34;;;;;;;9.50;5.37;;;;;;;;;;5095154;28;20062;-76
2022/09/28 03:42:00;;;;;;;8.37;4.40;;;;;;;;;;5096979;28;20326;-77
2022/09/28 03:44:25;;;;;;;6.38;3.75;;;;;;;;;;5096018;28;20253;-76
2022/09/28 03:46:50;;;;;;;6.03;3.33;;;;;;;;;;5097766;28;20115;-77
2022/09/28 03:49:15;;;;;;;3.35;2.20;;;;;;;;;;5097956;28;20280;-77
2022/09/28 03:51:41;;;;;;;2.80;2.00;;;;;;;;;;5097620;28;20040;-77
2022/09/28 03:54:06;;;;;;;3.65;2.10;;;;;;;;;;5097420;28;20276;-76
2022/09/28 03:56:31;;;;;;;5.35;2.20;;;;;;;;;;5097929;28;20098;-76
2022/09/28 03:58:57;;;;;;;4.07;2.17;;;;;;;;;;5097237;28;20028;-76
2022/09/28 04:01:22;;;;;;;5.72;2.40;;;;;;;;;;5097324;28;20024;-77
2022/09/28 04:03:52;;;;;;;4.00;2.40;;;;;;;;;;5097491;28;20104;-76
2022/09/28 04:06:18;;;;;;;3.78;2.28;;;;;;;;;;5097380;28;20165;-77
2022/09/28 04:08:43;;;;;;;4.63;2.47;;;;;;;;;;5097434;28;20067;-78
2022/09/28 04:11:08;;;;;;;4.97;2.50;;;;;;;;;;5096710;28;20278;-76
2022/09/28 04:13:33;;;;;;;5.00;2.73;;;;;;;;;;5096068;28;20280;-76
2022/09/28 04:16:00;;;;;;;4.82;2.50;;;;;;;;;;5095468;28;20310;-77
2022/09/28 04:18:25;;;;;;;5.55;2.80;;;;;;;;;;5096347;28;20102;-77
2022/09/28 04:21:07;;;;;;;4.72;2.88;;;;;;;;;;5095769;28;20055;-77
2022/09/28 04:23:34;;;;;;;5.88;3.13;;;;;;;;;;5095520;28;20020;-77
2022/09/28 04:26:00;;;;;;;8.57;3.45;;;;;;;;;;5094260;28;20099;-76
2022/09/28 04:31:12;;;;;;;6.18;3.35;;;;;;;;;;5094495;28;20533;-77
2022/09/28 04:33:37;;;;;;;7.55;3.90;;;;;;;;;;5093809;28;20028;-77
2022/09/28 04:36:02;;;;;;;8.65;4.00;;;;;;;;;;5095270;28;20024;-77
2022/09/28 04:38:28;;;;;;;6.50;3.67;;;;;;;;;;5095172;28;20038;-77
2022/09/28 04:40:53;;;;;;;7.20;3.93;;;;;;;;;;5094820;28;20079;-76
2022/09/28 04:43:18;;;;;;;8.15;4.32;;;;;;;;;;5094277;28;20610;-77
2022/09/28 04:45:43;;;;;;;8.97;4.53;;;;;;;;;;5093950;28;20055;-76
2022/09/28 04:48:08;;;;;;;9.50;4.27;;;;;;;;;;5094261;28;20263;-77
2022/09/28 04:50:34;;;;;;;10.67;4.83;;;;;;;;;;5095391;28;20260;-77
2022/09/28 04:53:00;;;;;;;6.82;3.95;;;;;;;;;;5094733;28;20260;-76
2022/09/28 04:55:27;;;;;;;7.78;4.20;;;;;;;;;;5095361;28;20062;-76
2022/09/28 04:57:53;;;;;;;6.53;3.92;;;;;;;;;;5093836;28;20027;-76
2022/09/28 05:00:18;;;;;;;9.23;4.10;;;;;;;;;;5092381;28;20028;-76
2022/09/28 05:02:44;;;;;;;7.13;3.92;;;;;;;;;;5093947;28;20092;-77
2022/09/28 05:05:09;;;;;;;6.95;3.72;;;;;;;;;;5093982;28;20078;-76
2022/09/28 05:07:34;;;;;;;6.18;3.38;;;;;;;;;;5093833;28;20024;-76
2022/09/28 05:10:00;;;;;;;5.55;3.60;;;;;;;;;;5094006;28;20024;-76
2022/09/28 05:12:25;;;;;;;7.05;3.72;;;;;;;;;;5092387;28;20028;-76
2022/09/28 05:14:50;;;;;;;6.03;3.50;;;;;;;;;;5093232;28;20485;-75
2022/09/28 05:17:16;;;;;;;6.57;3.43;;;;;;;;;;5091688;28;20792;-75
2022/09/28 05:19:41;;;;;;;6.90;3.70;;;;;;;;;;5091767;28;20757;-75
2022/09/28 05:22:10;;;;;;;7.15;3.70;;;;;;;;;;5093106;28;20035;-75
2022/09/28 05:24:35;;;;;;;8.65;4.05;;;;;;;;;;5092484;28;20016;-76
2022/09/28 05:27:00;;;;;;;6.85;3.90;;;;;;;;;;5098607;28;20033;-77
2022/09/28 05:29:25;;;;;;;10.20;4.67;;;;;;;;;;5091727;28;20016;-77
2022/09/28 05:31:51;;;;;;;7.23;3.83;;;;;;;;;;5091705;28;20283;-77
2022/09/28 05:34:16;;;;;;;10.30;4.37;;;;;;;;;;5092893;28;20645;-77
2022/09/28 05:36:41;;;;;;;8.40;4.50;;;;;;;;;;5092778;28;20624;-77
2022/09/28 05:39:08;;;;;;;9.52;4.80;;;;;;;;;;5091456;28;20632;-76
2022/09/28 05:41:33;;;;;;;8.52;4.63;;;;;;;;;;5092599;28;20105;-77
2022/09/28 05:43:58;;;;;;;9.88;5.03;;;;;;;;;;5091341;28;20481;-77
2022/09/28 05:46:24;;;;;;;8.82;5.43;;;;;;;;;;5092972;28;20385;-77
2022/09/28 05:48:51;;;;;;;10.50;5.72;;;;;;;;;;5092853;28;20024;-77
2022/09/28 05:51:16;;;;;;;11.02;5.60;;;;;;;;;;5092914;28;20036;-77
2022/09/28 05:53:41;;;;;;;10.15;5.55;;;;;;;;;;5092698;28;20024;-77
2022/09/28 05:56:07;;;;;;;13.77;6.20;;;;;;;;;;5092628;28;20028;-77
2022/09/28 05:58:32;;;;;;;12.07;5.38;;;;;;;;;;5092656;28;20332;-77
2022/09/28 06:00:57;;;;;;;8.87;5.77;;;;;;;;;;5092424;28;20024;-77
2022/09/28 06:03:23;;;;;;;10.02;5.45;;;;;;;;;;5092550;28;20263;-77
2022/09/28 06:05:48;;;;;;;11.02;5.88;;;;;;;;;;5093967;28;20043;-77
2022/09/28 06:08:13;;;;;;;11.33;6.60;;;;;;;;;;5091144;28;20024;-77
2022/09/28 06:10:39;;;;;;;9.55;5.88;;;;;;;;;;5092302;28;20264;-77
2022/09/28 06:13:05;;;;;;;10.85;5.82;;;;;;;;;;5092759;28;20026;-77
2022/09/28 06:15:32;;;;;;;12.52;5.70;;;;;;;;;;5092634;28;20024;-77
2022/09/28 06:17:59;;;;;;;12.25;6.40;;;;;;;;;;5092386;28;20501;-77
2022/09/28 06:20:26;;;;;;;18.42;6.72;;;;;;;;;;5092324;28;20024;-77
2022/09/28 06:22:54;;;;;;;9.85;6.20;;;;;;;;;;5091045;28;20548;-77
2022/09/28 06:25:21;;;;;;;8.13;5.68;;;;;;;;;;5092631;28;20099;-76
2022/09/28 06:28:06;;;;;;;7.35;5.35;;;;;;;;;;5092548;28;20103;-76
2022/09/28 06:30:33;;;;;;;7.97;5.22;;;;;;;;;;5092356;28;20093;-76
2022/09/28 06:33:00;;;;;;;10.20;5.43;;;;;;;;;;5092593;28;20090;-76
2022/09/28 06:35:29;;;;;;;14.32;6.10;;;;;;;;;;5092256;28;20028;-76
2022/09/28 06:37:54;;;;;;;8.40;5.50;;;;;;;;;;5094803;28;20020;-78
2022/09/28 06:40:20;;;;;;;7.05;5.40;;;;;;;;;;5101261;28;20085;-78
2022/09/28 06:43:00;;;;;;;7.22;5.13;;;;;;;;;;5100910;28;20035;-78
2022/09/28 06:45:28;;;;;;;10.20;5.05;;;;;;;;;;5102154;28;20024;-78
2022/09/28 06:48:00;;;;;;;10.60;4.90;;;;;;;;;;5102292;28;20023;-77
2022/09/28 06:50:31;;;;;;;6.72;4.90;;;;;;;;;;5094647;28;20059;-79
2022/09/28 06:52:58;;;;;;;10.45;5.10;;;;;;;;;;5094363;28;20442;-79
2022/09/28 06:55:23;;;;;;;9.75;4.90;;;;;;;;;;5097560;28;20032;-79
2022/09/28 06:57:59;;;;;;;6.40;4.05;;;;;;;;;;5097694;28;20104;-78
2022/09/28 07:00:32;;;;;;;4.75;3.67;;;;;;;;;;5097644;28;20023;-79
2022/09/28 07:02:58;;;;;;;4.88;3.13;;;;;;;;;;5097600;28;20440;-78
2022/09/28 07:05:26;;;;;;;6.65;3.60;;;;;;;;;;5096216;28;20102;-77
2022/09/28 07:07:55;;;;;;;5.63;3.67;;;;;;;;;;5095609;28;20069;-76
2022/09/28 07:10:30;;;;;;;4.68;3.53;;;;;;;;;;5094192;28;20050;-76
2022/09/28 07:12:58;;;;;;;7.82;3.70;;;;;;;;;;5095650;28;20122;-76
2022/09/28 07:15:23;;;;;;;5.70;3.38;;;;;;;;;;5095363;28;20050;-76
2022/09/28 07:17:49;;;;;;;4.93;3.50;;;;;;;;;;5095545;28;20028;-76
2022/09/28 07:20:14;;;;;;;4.70;3.30;;;;;;;;;;5095670;28;20039;-76
2022/09/28 07:22:39;;;;;;;4.80;3.63;;;;;;;;;;5095638;28;20095;-76
2022/09/28 07:25:06;;;;;;;5.97;3.67;;;;;;;;;;5095946;28;20028;-76
2022/09/28 07:27:31;;;;;;;6.40;3.53;;;;;;;;;;5095465;28;20049;-77
2022/09/28 07:29:57;;;;;;;4.25;3.40;;;;;;;;;;5094129;28;20032;-76
2022/09/28 07:32:23;;;;;;;4.78;3.65;;;;;;;;;;5095469;28;20024;-76
2022/09/28 07:34:48;;;;;;;5.47;3.92;;;;;;;;;;5095585;28;20370;-77
2022/09/28 07:37:15;;;;;;;8.20;3.87;;;;;;;;;;5094068;28;20024;-76
2022/09/28 07:42:28;;;;;;;5.65;3.60;;;;;;;;;;5095357;28;20169;-76
2022/09/28 07:44:53;;;;;;;5.38;4.15;;;;;;;;;;5095231;28;20024;-76
2022/09/28 07:47:25;;;;;;;6.95;4.03;;;;;;;;;;5095339;28;20055;-75
2022/09/28 07:49:55;;;;;;;7.53;4.05;;;;;;;;;;5093844;28;20396;-76
2022/09/28 07:52:24;;;;;;;7.53;4.05;;;;;;;;;;5094000;28;20116;-76
2022/09/28 07:54:54;;;;;;;9.63;4.00;;;;;;;;;;5095015;28;20473;-76
2022/09/28 07:57:20;;;;;;;4.93;3.63;;;;;;;;;;5093707;28;20382;-75
2022/09/28 07:59:46;;;;;;;5.43;4.18;;;;;;;;;;5093522;28;20107;-76
2022/09/28 08:02:12;;;;;;;6.93;4.10;;;;;;;;;;5095029;28;20027;-76
2022/09/28 08:04:37;;;;;;;7.80;4.45;;;;;;;;;;5094803;28;20128;-76
2022/09/28 08:07:07;;;;;;;7.10;4.40;;;;;;;;;;5095017;28;20035;-76
2022/09/28 08:09:32;;;;;;;5.93;3.92;;;;;;;;;;5095092;28;20028;-76
2022/09/28 08:11:58;;;;;;;7.63;4.60;;;;;;;;;;5094677;28;20026;-76
2022/09/28 08:14:23;;;;;;;6.85;4.45;;;;;;;;;;5095155;28;20280;-77
2022/09/28 08:16:48;;;;;;;7.38;4.32;;;;;;;;;;5095318;28;20081;-76
2022/09/28 08:19:14;;;;;;;7.13;3.90;;;;;;;;;;5094593;28;20028;-76
2022/09/28 08:21:45;;;;;;;6.27;3.97;;;;;;;;;;5094853;28;20398;-76
2022/09/28 08:24:12;;;;;;;7.47;4.18;;;;;;;;;;5093297;28;20285;-76
2022/09/28 08:26:38;;;;;;;5.18;3.83;;;;;;;;;;5094713;28;20038;-76
2022/09/28 08:29:03;;;;;;;4.80;3.83;;;;;;;;;;5092993;28;20036;-76
2022/09/28 08:31:28;;;;;;;6.13;4.60;;;;;;;;;;5094349;28;20279;-76
2022/09/28 08:33:54;;;;;;;5.72;3.65;;;;;;;;;;5094214;28;20449;-75
2022/09/28 08:36:20;;;;;;;5.93;3.33;;;;;;;;;;5093047;28;20020;-76
2022/09/28 08:38:45;;;;;;;5.33;3.30;;;;;;;;;;5093839;28;20538;-76
2022/09/28 08:41:41;;;;;;;4.78;3.15;;;;;;;;;;5092663;28;20705;-76
2022/09/28 08:44:24;;;;;;;5.78;3.20;;;;;;;;;;5092673;28;20024;-76
2022/09/28 08:46:57;;;;;;;4.77;3.70;;;;;;;;;;5094368;28;20050;-76
2022/09/28 08:49:42;;;;;;;5.38;3.47;;;;;;;;;;5092656;28;20023;-76
2022/09/28 08:52:17;;;;;;;6.95;3.33;;;;;;;;;;5093836;28;20112;-77
2022/09/28 08:54:47;;;;;;;3.83;3.10;;;;;;;;;;5093817;28;20031;-76
2022/09/28 08:57:18;;;;;;;4.82;3.00;;;;;;;;;;5094088;28;20028;-76
2022/09/28 08:59:53;;;;;;;4.75;2.83;;;;;;;;;;5093754;28;20035;-76
2022/09/28 09:02:32;;;;;;;3.95;2.60;;;;;;;;;;5094060;28;20464;-77
2022/09/28 09:04:58;;;;;;;7.30;2.60;;;;;;;;;;5093593;28;20015;-76
2022/09/28 09:07:23;;;;;;;6.90;2.72;;;;;;;;;;5092280;28;20024;-77
2022/09/28 09:10:21;;;;;;;2.50;1.80;;;;;;;;;;5092496;28;20028;-76
2022/09/28 09:13:18;;;;;;;1.80;1.48;;;;;;;;;;5037886;28;20085;-76
2022/09/28 09:15:53;;;;;;;2.53;1.60;;;;;;;;;;5093027;28;20054;-77
2022/09/28 09:18:40;;;;;;;2.58;1.55;;;;;;;;;;5093750;28;20024;-77
2022/09/28 09:21:15;;;;;;;4.43;1.33;;;;;;;;;;5093828;28;20380;-76
2022/09/28 09:23:56;;;;;;;3.10;1.23;;;;;;;;;;5094120;28;20020;-78
2022/09/28 09:26:38;;;;;;;2.30;1.27;;;;;;;;;;5093478;28;20031;-77
2022/09/28 09:29:10;;;;;;;3.20;1.48;;;;;;;;;;5093484;28;20065;-76
2022/09/28 09:32:03;;;;;;;2.47;1.00;;;;;;;;;;5093972;28;20024;-76
2022/09/28 09:34:50;;;;;;;2.17;1.30;;;;;;;;;;5092027;28;20121;-76
2022/09/28 09:37:21;;;;;;;4.55;1.38;;;;;;;;;;5092167;28;20019;-77
2022/09/28 09:40:02;;;;;;;1.58;1.30;;;;;;;;;;5091982;28;20024;-76
2022/09/28 09:42:43;;;;;;;2.85;1.20;;;;;;;;;;5093542;28;20495;-76
2022/09/28 09:45:28;;;;;;;2.30;1.30;;;;;;;;;;5093210;28;20051;-76
2022/09/28 09:48:02;;;;;;;2.58;1.73;;;;;;;;;;5093177;28;20438;-76
2022/09/28 09:50:49;;;;;;;2.28;1.38;;;;;;;;;;5093126;28;20031;-76
2022/09/28 09:53:26;;;;;;;3.65;1.60;;;;;;;;;;5092075;28;20024;-76
2022/09/28 09:55:56;;;;;;;3.33;1.48;;;;;;;;;;5093454;28;20024;-75
2022/09/28 09:58:29;;;;;;;3.33;1.55;;;;;;;;;;5093090;28;20062;-76
2022/09/28 10:01:03;;;;;;;2.80;2.00;;;;;;;;;;5093604;28;20381;-76
2022/09/28 10:03:30;;;;;;;2.15;1.73;;;;;;;;;;5091809;28;20401;-77
2022/09/28 10:06:09;;;;;;;2.85;1.85;;;;;;;;;;5092988;28;20024;-77
2022/09/28 10:08:40;;;;;;;3.80;2.08;;;;;;;;;;5091771;28;20024;-76
2022/09/28 10:11:14;;;;;;;2.67;2.00;;;;;;;;;;5093362;28;20027;-77
2022/09/28 10:13:39;;;;;;;;;;;;;;;;;;5092007;28;20493;-76
2022/09/28 10:16:06;;;;;;;2.20;1.70;;;;;;;;;;5092858;28;19915;-76
2022/09/28 10:18:31;;;;;;;6.38;2.03;;;;;;;;;;5093392;28;20094;-76
2022/09/28 10:20:57;;;;;;;1.98;1.30;;;;;;;;;;5091631;28;20020;-76
2022/09/28 10:23:32;;;;;;;1.23;1.13;;;;;;;;;;5093056;28;20024;-76
2022/09/28 10:26:09;;;;;;;2.33;1.50;;;;;;;;;;5092871;28;20611;-76
2022/09/28 10:28:53;;;;;;;1.40;1.30;;;;;;;;;;5093226;28;20476;-76
2022/09/28 10:31:41;;;;;;;2.38;1.10;;;;;;;;;;5097119;28;20024;-76
2022/09/28 10:34:12;;;;;;;2.05;1.42;;;;;;;;;;5096887;28;20158;-76
2022/09/28 10:36:58;;;;;;;2.60;1.20;;;;;;;;;;5097078;28;20020;-76
2022/09/28 10:39:31;;;;;;;3.03;1.30;;;;;;;;;;5096510;28;20016;-76
2022/09/28 10:41:58;;;;;;;1.67;1.13;;;;;;;;;;5096466;28;20028;-76
2022/09/28 10:44:24;;;;;;;1.38;1.10;;;;;;;;;;5096345;28;20026;-76
2022/09/28 10:47:00;;;;;;;2.92;1.10;;;;;;;;;;5097051;28;20020;-77
2022/09/28 10:49:27;;;;;;;1.75;1.08;;;;;;;;;;5095086;28;20024;-76
2022/09/28 10:51:55;;;;;;;5.82;2.10;;;;;;;;;;5095059;28;20036;-76
2022/09/28 10:54:28;;;;;;;2.33;1.40;;;;;;;;;;5096151;28;20024;-75
2022/09/28 10:56:55;;;;;;;1.70;1.33;;;;;;;;;;5096560;28;20106;-76
2022/09/28 10:59:23;;;;;;;1.33;1.10;;;;;;;;;;5096106;28;20028;-76
2022/09/28 11:01:54;;;;;;;2.13;1.38;;;;;;;;;;5096320;28;20064;-76
2022/09/28 11:04:22;;;;;;;2.25;1.13;;;;;;;;;;5094739;28;20489;-76
2022/09/28 11:06:48;;;;;;;1.60;1.05;;;;;;;;;;5096114;28;20023;-76
2022/09/28 11:09:25;;;;;;;1.88;1.10;;;;;;;;;;5096164;28;20080;-76
2022/09/28 11:11:51;;;;;;;1.73;1.30;;;;;;;;;;5096431;28;20032;-76
2022/09/28 11:14:37;;;;;;;2.30;1.20;;;;;;;;;;5095956;28;20035;-76
2022/09/28 11:17:37;;;;;;;1.98;1.20;;;;;;;;;;5095171;28;20020;-77
2022/09/28 11:20:23;;;;;;;1.98;1.23;;;;;;;;;;5095898;28;20050;-76
2022/09/28 11:23:13;;;;;;;3.05;1.52;;;;;;;;;;5095715;28;20028;-76
2022/09/28 11:25:39;;;;;;;2.47;1.50;;;;;;;;;;5081893;28;20123;-77
2022/09/28 11:28:05;;;;;;;2.85;1.55;;;;;;;;;;5095704;28;20028;-76
2022/09/28 11:30:50;;;;;;;4.35;1.65;;;;;;;;;;5095765;28;20445;-77
2022/09/28 11:33:21;;;;;;;3.33;1.83;;;;;;;;;;5095989;28;20024;-76
2022/09/28 11:35:53;;;;;;;3.28;2.42;;;;;;;;;;5095798;28;20559;-77
2022/09/28 11:38:30;;;;;;;6.07;2.33;;;;;;;;;;5095566;28;20031;-76
2022/09/28 11:41:03;;;;;;;3.28;2.30;;;;;;;;;;5095280;28;20020;-77
2022/09/28 11:43:55;;;;;;;4.45;1.95;;;;;;;;;;5095869;28;20110;-76
2022/09/28 11:46:46;;;;;;;2.53;1.90;;;;;;;;;;5095755;28;20038;-76
2022/09/28 11:49:38;;;;;;;2.78;1.67;;;;;;;;;;5093969;28;20061;-76
2022/09/28 11:52:15;;;;;;;3.50;2.22;;;;;;;;;;5094344;28;20404;-77
2022/09/28 11:54:53;;;;;;;2.38;2.00;;;;;;;;;;5095122;28;20028;-77
2022/09/28 11:57:33;;;;;;;7.55;1.67;;;;;;;;;;5094016;28;20024;-77
2022/09/28 12:00:04;;;;;;;2.58;1.42;;;;;;;;;;5095731;28;20032;-77
2022/09/28 12:02:38;;;;;;;2.60;1.10;;;;;;;;;;5094058;28;20024;-75
2022/09/28 12:05:19;;;;;;;1.92;1.20;;;;;;;;;;5095332;28;20024;-76
2022/09/28 12:07:49;;;;;;;9.35;1.50;;;;;;;;;;5093706;28;20056;-77
2022/09/28 12:10:38;;;;;;;2.38;1.48;;;;;;;;;;5094913;28;20024;-76
2022/09/28 12:13:36;;;;;;;1.92;1.20;;;;;;;;;;5093537;28;20023;-76
2022/09/28 12:16:01;;;;;;;1.67;1.30;;;;;;;;;;5094921;28;20020;-75
2022/09/28 12:18:45;;;;;;;2.37;1.20;;;;;;;;;;5095025;28;20081;-75
2022/09/28 12:21:31;;;;;;;5.68;1.27;;;;;;;;;;5094745;28;20507;-75
2022/09/28 12:24:20;;;;;;;1.92;1.10;;;;;;;;;;5094727;28;20499;-77
2022/09/28 12:27:09;;;;;;;1.13;0.70;;;;;;;;;;5093430;28;20031;-76
2022/09/28 12:29:46;;;;;;;0.93;0.70;;;;;;;;;;5094650;28;20020;-77
2022/09/28 12:32:36;;;;;;;1.08;0.73;;;;;;;;;;5094753;28;20020;-77
2022/09/28 12:35:09;;;;;;;4.32;0.70;;;;;;;;;;5093142;28;20021;-76
2022/09/28 12:37:41;;;;;;;3.15;0.90;;;;;;;;;;5094426;28;20109;-76
2022/09/28 12:40:36;;;;;;;1.25;0.88;;;;;;;;;;5094281;28;20024;-76
2022/09/28 12:43:27;;;;;;;0.80;0.70;;;;;;;;;;5093047;28;20065;-75
2022/09/28 12:46:01;;;;;;;1.50;0.82;;;;;;;;;;5094131;28;20461;-76
2022/09/28 12:48:57;;;;;;;3.33;0.77;;;;;;;;;;5094296;28;20028;-77
2022/09/28 12:51:48;;;;;;;0.80;0.73;;;;;;;;;;5093290;28;20028;-77
2022/09/28 12:54:49;;;;;;;2.70;0.80;;;;;;;;;;5045681;28;20040;-76
2022/09/28 12:57:33;;;;;;;1.15;0.82;;;;;;;;;;5092859;28;20023;-77
2022/09/28 13:00:01;;;;;;;;;;;;;;;;;;5094768;28;20027;-76
2022/09/28 13:03:00;;;;;;;1.05;0.70;;;;;;;;;;5094221;28;19961;-76
2022/09/28 13:05:35;;;;;;;1.10;1.00;;;;;;;;;;5092557;28;20017;-77
2022/09/28 13:08:15;;;;;;;1.10;0.90;;;;;;;;;;5094022;28;20050;-76
2022/09/28 13:11:14;;;;;;;2.42;0.98;;;;;;;;;;5093727;28;20023;-76
2022/09/28 13:13:44;;;;;;;1.08;0.85;;;;;;;;;;5086850;28;20544;-76
2022/09/28 13:16:33;;;;;;;1.48;1.00;;;;;;;;;;5094037;28;20034;-77
2022/09/28 13:19:22;;;;;;;2.35;1.15;;;;;;;;;;5093938;28;20105;-77
2022/09/28 13:22:23;;;;;;;2.28;0.80;;;;;;;;;;5093783;28;20098;-76
2022/09/28 13:24:49;;;;;;;2.13;0.93;;;;;;;;;;5094182;28;20020;-77
2022/09/28 13:27:22;;;;;;;2.15;0.85;;;;;;;;;;5092302;28;20118;-77
2022/09/28 13:29:50;;;;;;;1.38;0.98;;;;;;;;;;5092549;28;20085;-77
2022/09/28 13:32:17;;;;;;;1.08;0.90;;;;;;;;;;5092018;28;20511;-77
2022/09/28 13:34:47;;;;;;;0.88;0.70;;;;;;;;;;5093374;28;20028;-77
2022/09/28 13:37:24;;;;;;;0.50;0.50;;;;;;;;;;5092922;28;20038;-77
2022/09/28 13:39:52;;;;;;;1.67;0.40;;;;;;;;;;5093505;28;20020;-77
2022/09/28 13:42:37;;;;;;;0.90;0.70;;;;;;;;;;5093739;28;20024;-75
2022/09/28 13:45:16;;;;;;;3.35;0.40;;;;;;;;;;5093213;28;20396;-76
2022/09/28 13:47:55;;;;;;;0.40;0.40;;;;;;;;;;5092165;28;20030;-75
2022/09/28 13:50:34;;;;;;;0.65;0.50;;;;;;;;;;5093344;28;20035;-76
2022/09/28 13:53:42;;;;;;;0.47;0.43;;;;;;;;;;5092313;28;20507;-76
2022/09/28 13:56:41;;;;;;;0.55;0.40;;;;;;;;;;5093087;28;20084;-76
2022/09/28 13:59:17;;;;;;;0.50;0.50;;;;;;;;;;5093113;28;20032;-76
2022/09/28 14:01:56;;;;;;;1.15;0.60;;;;;;;;;;5093434;28;20178;-76
2022/09/28 14:04:24;;;;;;;0.63;0.60;;;;;;;;;;5096858;28;20385;-76
2022/09/28 14:06:54;;;;;;;0.95;0.85;;;;;;;;;;5095859;28;20050;-76
2022/09/28 14:09:26;;;;;;;1.08;0.70;;;;;;;;;;5095846;28;20399;-76
2022/09/28 14:12:00;;;;;;;0.95;0.77;;;;;;;;;;5095859;28;20028;-76
2022/09/28 14:14:27;;;;;;;;;;;;;;;;;;5096126;28;20481;-76
2022/09/28 14:17:19;;;;;;;1.55;0.90;;;;;;;;;;5097181;28;19915;-76
2022/09/28 14:20:13;;;;;;;0.70;0.70;;;;;;;;;;5096918;28;20075;-76
2022/09/28 14:23:02;;;;;;;1.23;0.90;;;;;;;;;;5097138;28;20111;-76
2022/09/28 14:25:34;;;;;;;1.17;0.90;;;;;;;;;;5097459;28;20020;-76
2022/09/28 14:28:08;;;;;;;1.67;0.80;;;;;;;;;;5095726;28;20053;-76
2022/09/28 14:30:47;;;;;;;0.95;0.80;;;;;;;;;;5097118;28;20028;-76
2022/09/28 14:33:24;;;;;;;0.95;0.73;;;;;;;;;;5096165;28;20076;-77
2022/09/28 14:36:00;;;;;;;1.75;0.80;;;;;;;;;;5097291;28;20078;-77
2022/09/28 14:41:16;;;;;;;1.40;0.93;;;;;;;;;;5097993;28;20031;-78
2022/09/28 14:43:44;;;;;;;1.58;1.08;;;;;;;;;;5096860;28;20024;-76
2022/09/28 14:46:10;;;;;;;1.48;1.02;;;;;;;;;;5095337;28;20119;-78
2022/09/28 14:48:47;;;;;;;1.45;1.00;;;;;;;;;;5096995;28;20117;-76
2022/09/28 14:51:33;;;;;;;1.83;0.90;;;;;;;;;;5095343;28;20073;-77
2022/09/28 14:54:11;;;;;;;1.30;0.80;;;;;;;;;;5097040;28;20024;-77
2022/09/28 14:56:50;;;;;;;0.70;0.70;;;;;;;;;;5095613;28;20020;-77
2022/09/28 14:59:24;;;;;;;0.80;0.73;;;;;;;;;;5096506;28;20028;-77
2022/09/28 15:01:51;;;;;;;1.95;1.00;;;;;;;;;;5096545;28;20032;-77
2022/09/28 15:04:17;;;;;;;0.75;0.70;;;;;;;;;;5094959;28;20032;-75
2022/09/28 15:06:45;;;;;;;0.93;0.82;;;;;;;;;;5096231;28;20111;-78
2022/09/28 15:09:27;;;;;;;0.70;0.70;;;;;;;;;;5096450;28;20020;-77
2022/09/28 15:11:58;;;;;;;0.60;0.60;;;;;;;;;;5096101;28;20031;-76
2022/09/28 15:14:23;;;;;;;2.85;0.70;;;;;;;;;;5095449;28;20020;-77
2022/09/28 15:16:49;;;;;;;1.73;0.77;;;;;;;;;;5096437;28;20027;-77
2022/09/28 15:19:29;;;;;;;0.68;0.68;;;;;;;;;;5094519;28;20551;-77
2022/09/28 15:21:54;;;;;;;0.70;0.70;;;;;;;;;;5095854;28;20026;-77
2022/09/28 15:24:27;;;;;;;0.77;0.55;;;;;;;;;;5095787;28;20023;-76
2022/09/28 15:26:52;;;;;;;1.00;0.60;;;;;;;;;;5095892;28;20109;-76